sensor_id;sensor_type;location;lat;lon;timestamp;P1;durP1;ratioP1;P2;durP2;ratioP2
23642;SDS011;11998;55.788;37.572;2022-08-25T00:00:30;17.38;;;8.77;;
23642;SDS011;11998;55.788;37.572;2022-08-25T00:01:32;17.42;;;7.65;;
23642;SDS011;11998;55.788;37.572;2022-08-25T00:02:35;18.75;;;8.30;;
23642;SDS011;11998;55.788;37.572;2022-08-25T00:03:36;18.23;;;7.53;;
23642;SDS011;11998;55.788;37.572;2022-08-25T00:04:37;14.05;;;8.00;;
23642;SDS011;11998;55.788;37.572;2022-08-25T00:05:37;24.08;;;8.90;;
23642;SDS011;11998;55.788;37.572;2022-08-25T00:06:39;21.17;;;8.93;;
23642;SDS011;11998;55.788;37.572;2022-08-25T00:07:40;17.48;;;8.38;;
23642;SDS011;11998;55.788;37.572;2022-08-25T00:08:41;20.27;;;7.88;;
23642;SDS011;11998;55.788;37.572;2022-08-25T00:09:42;19.05;;;8.88;;
23642;SDS011;11998;55.788;37.572;2022-08-25T00:10:44;16.38;;;7.90;;
23642;SDS011;11998;55.788;37.572;2022-08-25T00:11:45;19.52;;;8.23;;
23642;SDS011;11998;55.788;37.572;2022-08-25T00:12:48;17.20;;;8.63;;
23642;SDS011;11998;55.788;37.572;2022-08-25T00:13:51;16.27;;;7.97;;
23642;SDS011;11998;55.788;37.572;2022-08-25T00:14:54;15.00;;;8.65;;
23642;SDS011;11998;55.788;37.572;2022-08-25T00:15:55;20.90;;;8.13;;
23642;SDS011;11998;55.788;37.572;2022-08-25T00:16:56;18.88;;;8.02;;
23642;SDS011;11998;55.788;37.572;2022-08-25T00:17:57;25.83;;;9.38;;
23642;SDS011;11998;55.788;37.572;2022-08-25T00:19:04;21.70;;;8.38;;
23642;SDS011;11998;55.788;37.572;2022-08-25T00:20:07;30.92;;;9.77;;
23642;SDS011;11998;55.788;37.572;2022-08-25T00:21:08;22.73;;;8.73;;
23642;SDS011;11998;55.788;37.572;2022-08-25T00:22:09;18.75;;;8.90;;
23642;SDS011;11998;55.788;37.572;2022-08-25T00:23:09;16.92;;;8.43;;
23642;SDS011;11998;55.788;37.572;2022-08-25T00:24:10;29.02;;;9.75;;
23642;SDS011;11998;55.788;37.572;2022-08-25T00:25:13;25.13;;;9.55;;
23642;SDS011;11998;55.788;37.572;2022-08-25T00:26:15;21.45;;;10.05;;
23642;SDS011;11998;55.788;37.572;2022-08-25T00:27:16;24.50;;;10.40;;
23642;SDS011;11998;55.788;37.572;2022-08-25T00:28:17;29.17;;;10.65;;
23642;SDS011;11998;55.788;37.572;2022-08-25T00:29:17;25.63;;;10.30;;
23642;SDS011;11998;55.788;37.572;2022-08-25T00:30:18;21.33;;;9.80;;
23642;SDS011;11998;55.788;37.572;2022-08-25T00:31:19;18.92;;;10.15;;
23642;SDS011;11998;55.788;37.572;2022-08-25T00:32:22;32.25;;;11.82;;
23642;SDS011;11998;55.788;37.572;2022-08-25T00:33:24;28.30;;;11.13;;
23642;SDS011;11998;55.788;37.572;2022-08-25T00:34:29;25.55;;;10.90;;
23642;SDS011;11998;55.788;37.572;2022-08-25T00:35:33;25.92;;;9.85;;
23642;SDS011;11998;55.788;37.572;2022-08-25T00:36:34;23.15;;;9.70;;
23642;SDS011;11998;55.788;37.572;2022-08-25T00:37:35;28.45;;;9.05;;
23642;SDS011;11998;55.788;37.572;2022-08-25T00:38:40;28.70;;;9.70;;
23642;SDS011;11998;55.788;37.572;2022-08-25T00:39:42;23.95;;;9.05;;
23642;SDS011;11998;55.788;37.572;2022-08-25T00:40:43;30.48;;;10.32;;
23642;SDS011;11998;55.788;37.572;2022-08-25T00:41:45;28.25;;;10.10;;
23642;SDS011;11998;55.788;37.572;2022-08-25T00:42:46;27.25;;;9.55;;
23642;SDS011;11998;55.788;37.572;2022-08-25T00:44:20;25.70;;;9.27;;
23642;SDS011;11998;55.788;37.572;2022-08-25T00:45:16;20.73;;;9.40;;
23642;SDS011;11998;55.788;37.572;2022-08-25T00:46:19;26.55;;;10.10;;
23642;SDS011;11998;55.788;37.572;2022-08-25T00:47:22;24.10;;;9.02;;
23642;SDS011;11998;55.788;37.572;2022-08-25T00:48:24;22.23;;;9.50;;
23642;SDS011;11998;55.788;37.572;2022-08-25T00:49:26;22.42;;;9.57;;
23642;SDS011;11998;55.788;37.572;2022-08-25T00:50:28;20.08;;;9.13;;
23642;SDS011;11998;55.788;37.572;2022-08-25T00:51:36;22.23;;;9.55;;
23642;SDS011;11998;55.788;37.572;2022-08-25T00:52:43;20.23;;;8.40;;
23642;SDS011;11998;55.788;37.572;2022-08-25T00:53:47;22.75;;;8.63;;
23642;SDS011;11998;55.788;37.572;2022-08-25T00:54:54;20.08;;;9.63;;
23642;SDS011;11998;55.788;37.572;2022-08-25T00:55:55;24.08;;;8.45;;
23642;SDS011;11998;55.788;37.572;2022-08-25T00:56:58;18.95;;;8.23;;
23642;SDS011;11998;55.788;37.572;2022-08-25T00:58:17;18.17;;;8.73;;
23642;SDS011;11998;55.788;37.572;2022-08-25T00:59:21;19.10;;;8.60;;
23642;SDS011;11998;55.788;37.572;2022-08-25T01:01:35;26.60;;;8.65;;
23642;SDS011;11998;55.788;37.572;2022-08-25T01:02:37;22.48;;;8.85;;
23642;SDS011;11998;55.788;37.572;2022-08-25T01:03:38;28.65;;;10.20;;
23642;SDS011;11998;55.788;37.572;2022-08-25T01:04:38;26.60;;;9.30;;
23642;SDS011;11998;55.788;37.572;2022-08-25T01:05:39;25.17;;;9.25;;
23642;SDS011;11998;55.788;37.572;2022-08-25T01:06:42;21.67;;;9.57;;
23642;SDS011;11998;55.788;37.572;2022-08-25T01:07:44;31.77;;;9.13;;
23642;SDS011;11998;55.788;37.572;2022-08-25T01:08:45;18.58;;;7.75;;
23642;SDS011;11998;55.788;37.572;2022-08-25T01:09:46;23.05;;;8.60;;
23642;SDS011;11998;55.788;37.572;2022-08-25T01:10:50;17.40;;;7.88;;
23642;SDS011;11998;55.788;37.572;2022-08-25T01:11:51;18.02;;;8.40;;
23642;SDS011;11998;55.788;37.572;2022-08-25T01:12:52;20.83;;;8.27;;
23642;SDS011;11998;55.788;37.572;2022-08-25T01:13:57;21.75;;;8.27;;
23642;SDS011;11998;55.788;37.572;2022-08-25T01:15:03;19.80;;;8.57;;
23642;SDS011;11998;55.788;37.572;2022-08-25T01:16:05;16.85;;;8.80;;
23642;SDS011;11998;55.788;37.572;2022-08-25T01:17:06;25.85;;;8.48;;
23642;SDS011;11998;55.788;37.572;2022-08-25T01:18:07;15.52;;;8.57;;
23642;SDS011;11998;55.788;37.572;2022-08-25T01:19:08;21.38;;;7.72;;
23642;SDS011;11998;55.788;37.572;2022-08-25T01:20:11;23.02;;;8.48;;
23642;SDS011;11998;55.788;37.572;2022-08-25T01:21:13;25.25;;;8.77;;
23642;SDS011;11998;55.788;37.572;2022-08-25T01:22:14;22.90;;;8.65;;
23642;SDS011;11998;55.788;37.572;2022-08-25T01:23:15;22.85;;;9.07;;
23642;SDS011;11998;55.788;37.572;2022-08-25T01:24:30;19.40;;;8.07;;
23642;SDS011;11998;55.788;37.572;2022-08-25T01:27:11;17.60;;;8.55;;
23642;SDS011;11998;55.788;37.572;2022-08-25T01:28:12;21.30;;;8.38;;
23642;SDS011;11998;55.788;37.572;2022-08-25T01:29:13;26.58;;;9.10;;
23642;SDS011;11998;55.788;37.572;2022-08-25T01:30:20;20.73;;;8.63;;
23642;SDS011;11998;55.788;37.572;2022-08-25T01:31:21;18.48;;;8.27;;
23642;SDS011;11998;55.788;37.572;2022-08-25T01:32:22;19.63;;;8.65;;
23642;SDS011;11998;55.788;37.572;2022-08-25T01:33:23;17.50;;;7.20;;
23642;SDS011;11998;55.788;37.572;2022-08-25T01:34:24;19.70;;;8.82;;
23642;SDS011;11998;55.788;37.572;2022-08-25T01:35:27;22.42;;;8.15;;
23642;SDS011;11998;55.788;37.572;2022-08-25T01:36:28;18.83;;;8.40;;
23642;SDS011;11998;55.788;37.572;2022-08-25T01:37:29;20.25;;;8.18;;
23642;SDS011;11998;55.788;37.572;2022-08-25T01:38:33;26.17;;;8.85;;
23642;SDS011;11998;55.788;37.572;2022-08-25T01:39:34;17.52;;;8.45;;
23642;SDS011;11998;55.788;37.572;2022-08-25T01:40:38;22.58;;;9.90;;
23642;SDS011;11998;55.788;37.572;2022-08-25T01:44:14;20.70;;;9.23;;
23642;SDS011;11998;55.788;37.572;2022-08-25T01:45:16;21.98;;;8.57;;
23642;SDS011;11998;55.788;37.572;2022-08-25T01:46:17;18.17;;;7.95;;
23642;SDS011;11998;55.788;37.572;2022-08-25T01:47:18;20.20;;;8.52;;
23642;SDS011;11998;55.788;37.572;2022-08-25T01:48:19;19.02;;;8.85;;
23642;SDS011;11998;55.788;37.572;2022-08-25T01:49:20;25.75;;;8.43;;
23642;SDS011;11998;55.788;37.572;2022-08-25T01:50:21;18.20;;;8.85;;
23642;SDS011;11998;55.788;37.572;2022-08-25T01:51:22;22.63;;;9.13;;
23642;SDS011;11998;55.788;37.572;2022-08-25T01:52:27;22.60;;;8.98;;
23642;SDS011;11998;55.788;37.572;2022-08-25T01:53:31;16.83;;;8.30;;
23642;SDS011;11998;55.788;37.572;2022-08-25T01:54:31;17.98;;;8.43;;
23642;SDS011;11998;55.788;37.572;2022-08-25T01:55:32;17.15;;;8.40;;
23642;SDS011;11998;55.788;37.572;2022-08-25T01:56:50;19.15;;;8.52;;
23642;SDS011;11998;55.788;37.572;2022-08-25T01:57:51;20.15;;;9.75;;
23642;SDS011;11998;55.788;37.572;2022-08-25T01:58:51;21.10;;;9.98;;
23642;SDS011;11998;55.788;37.572;2022-08-25T01:59:52;14.63;;;8.05;;
23642;SDS011;11998;55.788;37.572;2022-08-25T02:00:53;16.73;;;9.13;;
23642;SDS011;11998;55.788;37.572;2022-08-25T02:01:56;22.23;;;8.60;;
23642;SDS011;11998;55.788;37.572;2022-08-25T02:02:57;21.05;;;8.80;;
23642;SDS011;11998;55.788;37.572;2022-08-25T02:03:57;16.98;;;9.52;;
23642;SDS011;11998;55.788;37.572;2022-08-25T02:04:58;18.92;;;10.30;;
23642;SDS011;11998;55.788;37.572;2022-08-25T02:05:59;20.55;;;9.57;;
23642;SDS011;11998;55.788;37.572;2022-08-25T02:07:01;21.75;;;10.55;;
23642;SDS011;11998;55.788;37.572;2022-08-25T02:08:04;22.05;;;9.38;;
23642;SDS011;11998;55.788;37.572;2022-08-25T02:09:07;24.77;;;10.00;;
23642;SDS011;11998;55.788;37.572;2022-08-25T02:10:10;25.40;;;11.15;;
23642;SDS011;11998;55.788;37.572;2022-08-25T02:11:13;23.83;;;10.43;;
23642;SDS011;11998;55.788;37.572;2022-08-25T02:12:14;18.48;;;9.90;;
23642;SDS011;11998;55.788;37.572;2022-08-25T02:13:14;28.70;;;10.90;;
23642;SDS011;11998;55.788;37.572;2022-08-25T02:14:15;16.45;;;9.07;;
23642;SDS011;11998;55.788;37.572;2022-08-25T02:15:17;22.65;;;11.13;;
23642;SDS011;11998;55.788;37.572;2022-08-25T02:16:37;17.35;;;10.65;;
23642;SDS011;11998;55.788;37.572;2022-08-25T02:17:39;25.92;;;10.20;;
23642;SDS011;11998;55.788;37.572;2022-08-25T02:18:39;23.02;;;11.55;;
23642;SDS011;11998;55.788;37.572;2022-08-25T02:19:40;21.80;;;9.68;;
23642;SDS011;11998;55.788;37.572;2022-08-25T02:20:40;22.70;;;11.80;;
23642;SDS011;11998;55.788;37.572;2022-08-25T02:21:41;26.25;;;12.07;;
23642;SDS011;11998;55.788;37.572;2022-08-25T02:22:42;24.70;;;12.27;;
23642;SDS011;11998;55.788;37.572;2022-08-25T02:23:43;23.35;;;11.63;;
23642;SDS011;11998;55.788;37.572;2022-08-25T02:24:43;21.85;;;12.07;;
23642;SDS011;11998;55.788;37.572;2022-08-25T02:25:44;24.60;;;13.32;;
23642;SDS011;11998;55.788;37.572;2022-08-25T02:26:44;26.58;;;13.25;;
23642;SDS011;11998;55.788;37.572;2022-08-25T02:27:45;30.45;;;14.38;;
23642;SDS011;11998;55.788;37.572;2022-08-25T02:28:46;26.02;;;12.43;;
23642;SDS011;11998;55.788;37.572;2022-08-25T02:29:47;22.83;;;12.43;;
23642;SDS011;11998;55.788;37.572;2022-08-25T02:30:48;25.10;;;12.25;;
23642;SDS011;11998;55.788;37.572;2022-08-25T02:31:48;26.95;;;12.93;;
23642;SDS011;11998;55.788;37.572;2022-08-25T02:32:49;30.95;;;13.93;;
23642;SDS011;11998;55.788;37.572;2022-08-25T02:33:50;26.63;;;14.27;;
23642;SDS011;11998;55.788;37.572;2022-08-25T02:34:51;23.13;;;13.85;;
23642;SDS011;11998;55.788;37.572;2022-08-25T02:35:55;34.53;;;14.23;;
23642;SDS011;11998;55.788;37.572;2022-08-25T02:36:57;33.22;;;14.13;;
23642;SDS011;11998;55.788;37.572;2022-08-25T02:37:57;32.13;;;13.82;;
23642;SDS011;11998;55.788;37.572;2022-08-25T02:38:58;29.02;;;13.85;;
23642;SDS011;11998;55.788;37.572;2022-08-25T02:39:59;28.60;;;14.88;;
23642;SDS011;11998;55.788;37.572;2022-08-25T02:41:00;28.95;;;14.55;;
23642;SDS011;11998;55.788;37.572;2022-08-25T02:42:07;25.13;;;14.25;;
23642;SDS011;11998;55.788;37.572;2022-08-25T02:43:07;26.48;;;14.23;;
23642;SDS011;11998;55.788;37.572;2022-08-25T02:44:08;31.67;;;15.57;;
23642;SDS011;11998;55.788;37.572;2022-08-25T02:45:09;28.58;;;14.68;;
23642;SDS011;11998;55.788;37.572;2022-08-25T02:46:10;31.40;;;14.23;;
23642;SDS011;11998;55.788;37.572;2022-08-25T02:47:11;32.65;;;15.90;;
23642;SDS011;11998;55.788;37.572;2022-08-25T02:48:12;30.25;;;15.73;;
23642;SDS011;11998;55.788;37.572;2022-08-25T02:49:13;32.47;;;15.65;;
23642;SDS011;11998;55.788;37.572;2022-08-25T02:50:13;26.23;;;14.73;;
23642;SDS011;11998;55.788;37.572;2022-08-25T02:51:14;26.50;;;14.27;;
23642;SDS011;11998;55.788;37.572;2022-08-25T02:52:15;30.83;;;14.82;;
23642;SDS011;11998;55.788;37.572;2022-08-25T02:53:16;33.65;;;16.60;;
23642;SDS011;11998;55.788;37.572;2022-08-25T02:54:17;27.25;;;15.27;;
23642;SDS011;11998;55.788;37.572;2022-08-25T02:55:18;32.25;;;16.73;;
23642;SDS011;11998;55.788;37.572;2022-08-25T02:56:18;35.67;;;17.35;;
23642;SDS011;11998;55.788;37.572;2022-08-25T02:57:19;30.23;;;15.73;;
23642;SDS011;11998;55.788;37.572;2022-08-25T02:58:20;33.72;;;16.55;;
23642;SDS011;11998;55.788;37.572;2022-08-25T02:59:21;29.38;;;15.57;;
23642;SDS011;11998;55.788;37.572;2022-08-25T03:00:22;29.90;;;16.00;;
23642;SDS011;11998;55.788;37.572;2022-08-25T03:01:22;29.83;;;14.95;;
23642;SDS011;11998;55.788;37.572;2022-08-25T03:02:23;31.52;;;15.98;;
23642;SDS011;11998;55.788;37.572;2022-08-25T03:03:25;35.75;;;15.45;;
23642;SDS011;11998;55.788;37.572;2022-08-25T03:04:26;26.95;;;15.13;;
23642;SDS011;11998;55.788;37.572;2022-08-25T03:05:28;28.27;;;14.63;;
23642;SDS011;11998;55.788;37.572;2022-08-25T03:06:28;27.33;;;15.15;;
23642;SDS011;11998;55.788;37.572;2022-08-25T03:07:29;29.38;;;15.93;;
23642;SDS011;11998;55.788;37.572;2022-08-25T03:08:30;32.38;;;15.35;;
23642;SDS011;11998;55.788;37.572;2022-08-25T03:09:30;30.05;;;15.23;;
23642;SDS011;11998;55.788;37.572;2022-08-25T03:10:31;27.17;;;15.63;;
23642;SDS011;11998;55.788;37.572;2022-08-25T03:11:33;34.80;;;16.05;;
23642;SDS011;11998;55.788;37.572;2022-08-25T03:12:34;23.98;;;15.15;;
23642;SDS011;11998;55.788;37.572;2022-08-25T03:13:35;33.78;;;16.50;;
23642;SDS011;11998;55.788;37.572;2022-08-25T03:14:36;31.35;;;14.95;;
23642;SDS011;11998;55.788;37.572;2022-08-25T03:15:36;32.05;;;15.85;;
23642;SDS011;11998;55.788;37.572;2022-08-25T03:16:37;30.10;;;15.65;;
23642;SDS011;11998;55.788;37.572;2022-08-25T03:17:39;32.28;;;15.93;;
23642;SDS011;11998;55.788;37.572;2022-08-25T03:18:40;32.90;;;15.90;;
23642;SDS011;11998;55.788;37.572;2022-08-25T03:19:41;27.88;;;15.25;;
23642;SDS011;11998;55.788;37.572;2022-08-25T03:20:41;31.88;;;16.45;;
23642;SDS011;11998;55.788;37.572;2022-08-25T03:21:42;29.77;;;15.13;;
23642;SDS011;11998;55.788;37.572;2022-08-25T03:22:44;25.10;;;14.75;;
23642;SDS011;11998;55.788;37.572;2022-08-25T03:23:45;25.70;;;14.20;;
23642;SDS011;11998;55.788;37.572;2022-08-25T03:24:46;28.05;;;16.27;;
23642;SDS011;11998;55.788;37.572;2022-08-25T03:25:46;29.77;;;15.13;;
23642;SDS011;11998;55.788;37.572;2022-08-25T03:27:05;31.95;;;15.70;;
23642;SDS011;11998;55.788;37.572;2022-08-25T03:28:06;27.92;;;15.10;;
23642;SDS011;11998;55.788;37.572;2022-08-25T03:29:07;36.47;;;17.02;;
23642;SDS011;11998;55.788;37.572;2022-08-25T03:30:08;34.03;;;16.17;;
23642;SDS011;11998;55.788;37.572;2022-08-25T03:31:09;31.95;;;16.15;;
23642;SDS011;11998;55.788;37.572;2022-08-25T03:32:10;33.15;;;17.45;;
23642;SDS011;11998;55.788;37.572;2022-08-25T03:33:10;32.50;;;15.70;;
23642;SDS011;11998;55.788;37.572;2022-08-25T03:34:11;39.20;;;16.92;;
23642;SDS011;11998;55.788;37.572;2022-08-25T03:35:13;36.17;;;16.45;;
23642;SDS011;11998;55.788;37.572;2022-08-25T03:36:14;30.77;;;16.70;;
23642;SDS011;11998;55.788;37.572;2022-08-25T03:37:15;36.35;;;15.90;;
23642;SDS011;11998;55.788;37.572;2022-08-25T03:38:15;37.88;;;15.73;;
23642;SDS011;11998;55.788;37.572;2022-08-25T03:39:17;33.15;;;16.13;;
23642;SDS011;11998;55.788;37.572;2022-08-25T03:40:19;39.10;;;15.95;;
23642;SDS011;11998;55.788;37.572;2022-08-25T03:41:24;36.65;;;16.15;;
23642;SDS011;11998;55.788;37.572;2022-08-25T03:42:27;32.22;;;15.88;;
23642;SDS011;11998;55.788;37.572;2022-08-25T03:43:28;39.33;;;16.85;;
23642;SDS011;11998;55.788;37.572;2022-08-25T03:44:28;27.73;;;16.17;;
23642;SDS011;11998;55.788;37.572;2022-08-25T03:45:29;39.25;;;16.52;;
23642;SDS011;11998;55.788;37.572;2022-08-25T03:46:31;39.40;;;16.90;;
23642;SDS011;11998;55.788;37.572;2022-08-25T03:47:33;36.78;;;16.42;;
23642;SDS011;11998;55.788;37.572;2022-08-25T03:48:34;40.25;;;17.27;;
23642;SDS011;11998;55.788;37.572;2022-08-25T03:49:34;33.95;;;15.63;;
23642;SDS011;11998;55.788;37.572;2022-08-25T03:50:35;30.15;;;15.68;;
23642;SDS011;11998;55.788;37.572;2022-08-25T03:51:38;37.33;;;15.60;;
23642;SDS011;11998;55.788;37.572;2022-08-25T03:52:49;29.00;;;15.23;;
23642;SDS011;11998;55.788;37.572;2022-08-25T03:53:54;29.73;;;13.90;;
23642;SDS011;11998;55.788;37.572;2022-08-25T03:54:55;32.05;;;14.63;;
23642;SDS011;11998;55.788;37.572;2022-08-25T03:55:56;25.42;;;13.85;;
23642;SDS011;11998;55.788;37.572;2022-08-25T03:56:56;29.42;;;14.93;;
23642;SDS011;11998;55.788;37.572;2022-08-25T03:57:57;27.02;;;15.77;;
23642;SDS011;11998;55.788;37.572;2022-08-25T03:58:58;25.35;;;15.32;;
23642;SDS011;11998;55.788;37.572;2022-08-25T03:59:59;28.98;;;15.63;;
23642;SDS011;11998;55.788;37.572;2022-08-25T04:00:59;26.25;;;14.23;;
23642;SDS011;11998;55.788;37.572;2022-08-25T04:02:00;32.00;;;15.40;;
23642;SDS011;11998;55.788;37.572;2022-08-25T04:03:01;21.77;;;14.02;;
23642;SDS011;11998;55.788;37.572;2022-08-25T04:04:03;29.23;;;15.07;;
23642;SDS011;11998;55.788;37.572;2022-08-25T04:05:05;26.48;;;13.73;;
23642;SDS011;11998;55.788;37.572;2022-08-25T04:06:06;30.42;;;14.63;;
23642;SDS011;11998;55.788;37.572;2022-08-25T04:07:07;29.60;;;14.60;;
23642;SDS011;11998;55.788;37.572;2022-08-25T04:08:08;28.48;;;13.93;;
23642;SDS011;11998;55.788;37.572;2022-08-25T04:09:09;26.08;;;14.52;;
23642;SDS011;11998;55.788;37.572;2022-08-25T04:10:11;31.23;;;13.77;;
23642;SDS011;11998;55.788;37.572;2022-08-25T04:11:13;29.95;;;13.98;;
23642;SDS011;11998;55.788;37.572;2022-08-25T04:12:16;31.17;;;14.80;;
23642;SDS011;11998;55.788;37.572;2022-08-25T04:13:17;26.95;;;14.88;;
23642;SDS011;11998;55.788;37.572;2022-08-25T04:14:17;26.45;;;14.95;;
23642;SDS011;11998;55.788;37.572;2022-08-25T04:15:19;30.42;;;14.35;;
23642;SDS011;11998;55.788;37.572;2022-08-25T04:16:20;27.00;;;14.02;;
23642;SDS011;11998;55.788;37.572;2022-08-25T04:17:24;28.70;;;14.27;;
23642;SDS011;11998;55.788;37.572;2022-08-25T04:18:25;30.60;;;15.10;;
23642;SDS011;11998;55.788;37.572;2022-08-25T04:19:25;34.45;;;15.32;;
23642;SDS011;11998;55.788;37.572;2022-08-25T04:20:26;34.00;;;15.48;;
23642;SDS011;11998;55.788;37.572;2022-08-25T04:21:27;37.90;;;15.23;;
23642;SDS011;11998;55.788;37.572;2022-08-25T04:22:28;33.83;;;16.45;;
23642;SDS011;11998;55.788;37.572;2022-08-25T04:23:30;34.45;;;15.13;;
23642;SDS011;11998;55.788;37.572;2022-08-25T04:24:31;33.95;;;15.77;;
23642;SDS011;11998;55.788;37.572;2022-08-25T04:25:32;23.48;;;14.90;;
23642;SDS011;11998;55.788;37.572;2022-08-25T04:26:34;33.28;;;16.15;;
23642;SDS011;11998;55.788;37.572;2022-08-25T04:27:38;30.00;;;16.52;;
23642;SDS011;11998;55.788;37.572;2022-08-25T04:28:38;35.70;;;17.33;;
23642;SDS011;11998;55.788;37.572;2022-08-25T04:29:39;31.80;;;16.67;;
23642;SDS011;11998;55.788;37.572;2022-08-25T04:30:41;32.78;;;17.17;;
23642;SDS011;11998;55.788;37.572;2022-08-25T04:31:43;38.85;;;16.85;;
23642;SDS011;11998;55.788;37.572;2022-08-25T04:32:49;37.65;;;17.55;;
23642;SDS011;11998;55.788;37.572;2022-08-25T04:33:50;34.80;;;17.45;;
23642;SDS011;11998;55.788;37.572;2022-08-25T04:34:50;42.10;;;17.25;;
23642;SDS011;11998;55.788;37.572;2022-08-25T04:35:51;29.60;;;17.38;;
23642;SDS011;11998;55.788;37.572;2022-08-25T04:36:52;34.90;;;17.58;;
23642;SDS011;11998;55.788;37.572;2022-08-25T04:37:52;31.75;;;17.13;;
23642;SDS011;11998;55.788;37.572;2022-08-25T04:38:53;35.92;;;17.63;;
23642;SDS011;11998;55.788;37.572;2022-08-25T04:39:53;32.10;;;17.55;;
23642;SDS011;11998;55.788;37.572;2022-08-25T04:40:55;30.60;;;16.77;;
23642;SDS011;11998;55.788;37.572;2022-08-25T04:41:59;31.77;;;16.33;;
23642;SDS011;11998;55.788;37.572;2022-08-25T04:43:00;34.28;;;15.05;;
23642;SDS011;11998;55.788;37.572;2022-08-25T04:44:01;28.52;;;17.08;;
23642;SDS011;11998;55.788;37.572;2022-08-25T04:45:02;30.50;;;17.50;;
23642;SDS011;11998;55.788;37.572;2022-08-25T04:46:07;30.02;;;18.13;;
23642;SDS011;11998;55.788;37.572;2022-08-25T04:47:10;33.97;;;15.20;;
23642;SDS011;11998;55.788;37.572;2022-08-25T04:48:11;33.13;;;14.93;;
23642;SDS011;11998;55.788;37.572;2022-08-25T04:49:11;27.33;;;15.60;;
23642;SDS011;11998;55.788;37.572;2022-08-25T04:50:12;28.17;;;16.73;;
23642;SDS011;11998;55.788;37.572;2022-08-25T04:51:14;29.45;;;15.80;;
23642;SDS011;11998;55.788;37.572;2022-08-25T04:52:17;32.78;;;16.38;;
23642;SDS011;11998;55.788;37.572;2022-08-25T04:53:17;23.55;;;14.10;;
23642;SDS011;11998;55.788;37.572;2022-08-25T04:54:18;26.23;;;14.60;;
23642;SDS011;11998;55.788;37.572;2022-08-25T04:55:21;27.17;;;16.35;;
23642;SDS011;11998;55.788;37.572;2022-08-25T04:56:21;33.95;;;17.50;;
23642;SDS011;11998;55.788;37.572;2022-08-25T04:57:24;28.17;;;15.93;;
23642;SDS011;11998;55.788;37.572;2022-08-25T04:58:25;28.83;;;16.23;;
23642;SDS011;11998;55.788;37.572;2022-08-25T04:59:26;33.97;;;14.98;;
23642;SDS011;11998;55.788;37.572;2022-08-25T05:00:27;34.03;;;15.20;;
23642;SDS011;11998;55.788;37.572;2022-08-25T05:01:27;32.25;;;15.45;;
23642;SDS011;11998;55.788;37.572;2022-08-25T05:02:28;27.83;;;15.23;;
23642;SDS011;11998;55.788;37.572;2022-08-25T05:03:29;32.17;;;16.00;;
23642;SDS011;11998;55.788;37.572;2022-08-25T05:04:31;30.52;;;16.02;;
23642;SDS011;11998;55.788;37.572;2022-08-25T05:05:34;34.75;;;16.63;;
23642;SDS011;11998;55.788;37.572;2022-08-25T05:06:36;39.30;;;16.15;;
23642;SDS011;11998;55.788;37.572;2022-08-25T05:07:37;29.95;;;16.77;;
23642;SDS011;11998;55.788;37.572;2022-08-25T05:08:38;33.55;;;16.65;;
23642;SDS011;11998;55.788;37.572;2022-08-25T05:09:39;27.23;;;15.25;;
23642;SDS011;11998;55.788;37.572;2022-08-25T05:10:39;26.08;;;15.82;;
23642;SDS011;11998;55.788;37.572;2022-08-25T05:11:40;32.28;;;15.65;;
23642;SDS011;11998;55.788;37.572;2022-08-25T05:12:41;31.33;;;16.10;;
23642;SDS011;11998;55.788;37.572;2022-08-25T05:13:41;29.48;;;15.70;;
23642;SDS011;11998;55.788;37.572;2022-08-25T05:14:43;28.13;;;15.35;;
23642;SDS011;11998;55.788;37.572;2022-08-25T05:15:49;32.28;;;15.10;;
23642;SDS011;11998;55.788;37.572;2022-08-25T05:16:59;28.80;;;15.50;;
23642;SDS011;11998;55.788;37.572;2022-08-25T05:18:01;33.90;;;15.23;;
23642;SDS011;11998;55.788;37.572;2022-08-25T05:19:02;28.42;;;15.50;;
23642;SDS011;11998;55.788;37.572;2022-08-25T05:20:03;31.80;;;14.88;;
23642;SDS011;11998;55.788;37.572;2022-08-25T05:21:06;24.23;;;14.55;;
23642;SDS011;11998;55.788;37.572;2022-08-25T05:22:08;25.73;;;15.20;;
23642;SDS011;11998;55.788;37.572;2022-08-25T05:23:09;24.83;;;14.75;;
23642;SDS011;11998;55.788;37.572;2022-08-25T05:24:10;29.35;;;14.07;;
23642;SDS011;11998;55.788;37.572;2022-08-25T05:25:11;23.38;;;14.50;;
23642;SDS011;11998;55.788;37.572;2022-08-25T05:26:15;27.95;;;14.88;;
23642;SDS011;11998;55.788;37.572;2022-08-25T05:27:17;25.30;;;14.40;;
23642;SDS011;11998;55.788;37.572;2022-08-25T05:28:18;26.98;;;15.23;;
23642;SDS011;11998;55.788;37.572;2022-08-25T05:29:20;27.00;;;14.30;;
23642;SDS011;11998;55.788;37.572;2022-08-25T05:30:20;26.58;;;15.07;;
23642;SDS011;11998;55.788;37.572;2022-08-25T05:31:21;29.63;;;14.63;;
23642;SDS011;11998;55.788;37.572;2022-08-25T05:32:23;27.25;;;14.65;;
23642;SDS011;11998;55.788;37.572;2022-08-25T05:33:24;25.48;;;14.48;;
23642;SDS011;11998;55.788;37.572;2022-08-25T05:34:25;34.33;;;13.93;;
23642;SDS011;11998;55.788;37.572;2022-08-25T05:35:25;29.35;;;14.90;;
23642;SDS011;11998;55.788;37.572;2022-08-25T05:36:26;27.05;;;14.13;;
23642;SDS011;11998;55.788;37.572;2022-08-25T05:37:28;27.88;;;15.73;;
23642;SDS011;11998;55.788;37.572;2022-08-25T05:38:29;30.42;;;15.98;;
23642;SDS011;11998;55.788;37.572;2022-08-25T05:39:29;29.20;;;14.45;;
23642;SDS011;11998;55.788;37.572;2022-08-25T05:40:32;30.35;;;15.30;;
23642;SDS011;11998;55.788;37.572;2022-08-25T05:41:33;37.03;;;16.52;;
23642;SDS011;11998;55.788;37.572;2022-08-25T05:42:34;31.38;;;15.77;;
23642;SDS011;11998;55.788;37.572;2022-08-25T05:43:36;33.08;;;15.23;;
23642;SDS011;11998;55.788;37.572;2022-08-25T05:44:38;32.22;;;15.65;;
23642;SDS011;11998;55.788;37.572;2022-08-25T05:45:39;37.03;;;15.30;;
23642;SDS011;11998;55.788;37.572;2022-08-25T05:46:40;29.60;;;14.57;;
23642;SDS011;11998;55.788;37.572;2022-08-25T05:47:41;31.45;;;16.38;;
23642;SDS011;11998;55.788;37.572;2022-08-25T05:48:42;34.63;;;16.00;;
23642;SDS011;11998;55.788;37.572;2022-08-25T05:49:43;38.78;;;16.38;;
23642;SDS011;11998;55.788;37.572;2022-08-25T05:50:49;39.88;;;16.33;;
23642;SDS011;11998;55.788;37.572;2022-08-25T05:51:53;33.63;;;16.45;;
23642;SDS011;11998;55.788;37.572;2022-08-25T05:52:54;34.03;;;16.15;;
23642;SDS011;11998;55.788;37.572;2022-08-25T05:53:54;29.63;;;15.30;;
23642;SDS011;11998;55.788;37.572;2022-08-25T05:54:55;34.47;;;16.05;;
23642;SDS011;11998;55.788;37.572;2022-08-25T05:55:56;35.55;;;16.13;;
23642;SDS011;11998;55.788;37.572;2022-08-25T05:56:58;36.97;;;15.65;;
23642;SDS011;11998;55.788;37.572;2022-08-25T05:58:00;33.63;;;15.05;;
23642;SDS011;11998;55.788;37.572;2022-08-25T05:59:00;35.65;;;15.60;;
23642;SDS011;11998;55.788;37.572;2022-08-25T06:00:01;36.90;;;16.52;;
23642;SDS011;11998;55.788;37.572;2022-08-25T06:01:04;31.98;;;16.08;;
23642;SDS011;11998;55.788;37.572;2022-08-25T06:02:23;32.58;;;16.25;;
23642;SDS011;11998;55.788;37.572;2022-08-25T06:03:42;45.97;;;16.77;;
23642;SDS011;11998;55.788;37.572;2022-08-25T06:04:44;36.22;;;15.95;;